Time;durP1;ratioP1;P1;durP2;ratioP2;P2;SDS_P1;SDS_P2;PMS_P1;PMS_P2;Temp;Humidity;BMP_temperature;BMP_pressure;BME280_temperature;BME280_humidity;BME280_pressure;Samples;Min_cycle;Max_cycle;Signal;HPM_P1;HPM_P2
2022/09/12 00:00:45;;;;;;;17.00;11.40;;;;;;;14.74;69.96;99257.53;5245099;28;20052;-72
2022/09/12 00:03:36;;;;;;;17.27;10.18;;;;;;;14.71;69.42;99257.84;5244212;28;20098;-71
2022/09/12 00:06:26;;;;;;;15.40;10.25;;;;;;;14.63;69.57;99259.66;5243875;28;20730;-72
2022/09/12 00:09:16;;;;;;;16.50;10.05;;;;;;;14.61;69.62;99259.00;5244429;28;20530;-72
2022/09/12 00:12:06;;;;;;;15.88;10.45;;;;;;;14.33;71.33;99256.53;5245269;28;20052;-71
2022/09/12 00:14:56;;;;;;;22.60;12.18;;;;;;;14.76;72.02;99257.34;5244734;28;20056;-72
2022/09/12 00:17:46;;;;;;;14.70;10.65;;;;;;;14.85;71.25;99258.22;5243227;28;20577;-72
2022/09/12 00:20:44;;;;;;;14.30;10.30;;;;;;;14.68;69.90;99250.19;5244956;28;20094;-71
2022/09/12 00:23:34;;;;;;;16.20;10.90;;;;;;;14.36;70.66;99232.22;5243226;28;20099;-72
2022/09/12 00:26:24;;;;;;;18.35;11.50;;;;;;;14.60;70.15;99250.13;5239983;28;20051;-71
2022/09/12 00:29:16;;;;;;;15.73;10.75;;;;;;;14.63;70.93;99232.97;5254874;22;20036;-85
2022/09/12 00:32:07;;;;;;;16.75;11.18;;;;;;;14.72;70.50;99253.34;5221277;28;20102;-84
2022/09/12 00:34:57;;;;;;;14.98;9.68;;;;;;;14.55;69.67;99236.47;5253818;28;20067;-84
2022/09/12 00:37:47;;;;;;;17.15;11.10;;;;;;;14.48;69.38;99230.91;5257320;28;20436;-84
2022/09/12 00:40:38;;;;;;;19.55;10.65;;;;;;;14.48;69.42;99246.94;5258571;28;20413;-84
2022/09/12 00:43:29;;;;;;;16.92;9.85;;;;;;;14.41;69.79;99248.59;5255558;28;20055;-85
2022/09/12 00:46:31;;;;;;;14.80;10.10;;;;;;;14.39;69.61;99247.91;5282104;28;20305;-83
2022/09/12 00:49:25;;;;;;;15.15;9.43;;;;;;;14.22;69.88;99256.84;5277648;28;20044;-83
2022/09/12 00:52:18;;;;;;;13.50;9.63;;;;;;;13.91;69.27;99203.19;5286450;28;20086;-84
2022/09/12 00:55:16;;;;;;;15.65;9.82;;;;;;;14.06;70.20;99236.28;5262988;28;20052;-83
2022/09/12 00:58:15;;;;;;;15.38;10.23;;;;;;;14.30;69.54;99233.72;5272912;28;20129;-84
2022/09/12 01:01:06;;;;;;;14.57;10.45;;;;;;;14.14;69.89;99223.00;5271960;28;20052;-84
2022/09/12 01:03:56;;;;;;;16.42;10.23;;;;;;;14.13;70.00;99231.97;5257741;28;20052;-84
2022/09/12 01:06:47;;;;;;;17.45;11.25;;;;;;;14.10;70.94;99214.47;5257157;28;20048;-86
2022/09/12 01:09:39;;;;;;;20.67;11.00;;;;;;;14.08;70.81;99213.78;5257267;28;20067;-83
2022/09/12 01:12:32;;;;;;;13.20;9.57;;;;;;;13.78;69.87;99206.34;5257031;28;20047;-85
2022/09/12 01:15:22;;;;;;;14.35;10.40;;;;;;;13.73;69.76;99200.63;5257399;28;20056;-83
2022/09/12 01:18:41;;;;;;;14.07;9.98;;;;;;;13.98;70.19;99215.75;5255869;28;20097;-83
2022/09/12 01:21:54;;;;;;;14.68;10.23;;;;;;;14.03;70.33;99221.41;5264805;28;20152;-85
2022/09/12 01:25:13;;;;;;;16.15;10.90;;;;;;;14.03;69.63;99209.94;5258551;28;20453;-84
2022/09/12 01:28:24;;;;;;;15.43;9.68;;;;;;;13.93;70.57;99211.88;5285066;28;20101;-84
2022/09/12 01:31:33;;;;;;;17.23;11.05;;;;;;;13.81;69.96;99216.69;5270092;28;20054;-84
2022/09/12 01:35:15;;;;;;;16.77;9.98;;;;;;;13.69;70.17;99209.94;5284994;28;20052;-84
2022/09/12 01:38:24;;;;;;;16.50;9.77;;;;;;;13.68;70.85;99208.28;5252067;28;20055;-85
2022/09/12 01:41:40;;;;;;;14.52;9.98;;;;;;;13.47;70.96;99148.22;5266537;28;20044;-83
2022/09/12 01:44:48;;;;;;;16.90;10.13;;;;;;;13.84;69.34;99205.66;5256518;28;20063;-84
2022/09/12 01:47:50;;;;;;;13.80;9.73;;;;;;;13.70;70.53;99203.63;5256871;28;20106;-84
2022/09/12 01:50:55;;;;;;;17.08;10.00;;;;;;;13.56;70.33;99200.53;5269700;28;20051;-83
2022/09/12 01:53:50;;;;;;;16.30;10.65;;;;;;;13.57;70.54;99180.88;5241908;28;20055;-85
2022/09/12 01:56:42;;;;;;;17.95;10.45;;;;;;;13.68;70.28;99192.28;5281369;28;20105;-85
2022/09/12 01:59:38;;;;;;;15.15;10.20;;;;;;;13.52;70.57;99175.22;5257136;28;20058;-84
2022/09/12 02:02:36;;;;;;;18.80;11.10;;;;;;;13.75;70.10;99193.31;5228470;28;20067;-84
2022/09/12 02:05:35;;;;;;;15.07;10.38;;;;;;;13.73;70.29;99196.13;5271993;28;20101;-84
2022/09/12 02:08:35;;;;;;;21.05;11.15;;;;;;;13.78;71.19;99185.00;5258263;28;20051;-85
2022/09/12 02:11:25;;;;;;;17.02;11.25;;;;;;;13.84;72.02;99184.34;5236461;28;20059;-84
2022/09/12 02:14:26;;;;;;;16.85;10.57;;;;;;;13.82;70.39;99178.38;5251146;28;20048;-83
2022/09/12 02:17:25;;;;;;;17.38;10.52;;;;;;;13.74;70.24;99196.97;5268097;28;20059;-84
2022/09/12 02:20:25;;;;;;;17.63;10.25;;;;;;;13.38;70.29;99163.31;5254438;28;20574;-84
2022/09/12 02:23:45;;;;;;;18.60;10.52;;;;;;;13.80;70.98;99183.84;5270946;28;20571;-84
2022/09/12 02:26:43;;;;;;;17.13;10.82;;;;;;;13.77;70.52;99188.66;5271946;28;20052;-84
2022/09/12 02:29:33;;;;;;;15.68;10.70;;;;;;;13.62;70.73;99183.94;5270261;28;20047;-85
2022/09/12 02:32:35;;;;;;;19.10;10.93;;;;;;;13.47;70.50;99166.84;5242920;28;20059;-84
2022/09/12 02:35:42;;;;;;;15.55;10.55;;;;;;;13.66;71.04;99186.28;5257924;28;20062;-83
2022/09/12 02:38:44;;;;;;;22.23;10.50;;;;;;;13.49;71.84;99166.72;5284090;28;20067;-84
2022/09/12 02:41:35;;;;;;;15.95;10.23;;;;;;;13.52;70.63;99171.72;5251789;28;20044;-85
2022/09/12 02:44:28;;;;;;;15.45;10.50;;;;;;;13.56;69.75;99181.06;5269119;28;20417;-84
2022/09/12 02:47:25;;;;;;;22.90;11.13;;;;;;;13.27;70.54;99165.41;5256968;28;20055;-84
2022/09/12 02:50:16;;;;;;;17.92;10.00;;;;;;;13.19;70.98;99157.34;5269377;28;20059;-85
2022/09/12 02:53:08;;;;;;;14.32;10.25;;;;;;;13.01;70.25;99150.22;5254488;28;20425;-84
2022/09/12 02:55:58;;;;;;;15.13;10.15;;;;;;;12.94;71.36;99154.50;5235617;28;20125;-85
2022/09/12 02:58:49;;;;;;;16.35;9.93;;;;;;;13.10;71.26;99159.09;5243038;28;20048;-83
2022/09/12 03:01:51;;;;;;;13.73;9.70;;;;;;;13.30;71.02;99170.41;5268908;28;20048;-83
2022/09/12 03:05:00;;;;;;;14.45;9.77;;;;;;;13.24;71.26;99165.69;5241097;28;20113;-84
2022/09/12 03:08:19;;;;;;;12.18;8.98;;;;;;;13.10;70.49;99162.59;5253228;28;20059;-84
2022/09/12 03:11:17;;;;;;;12.27;8.95;;;;;;;13.01;71.10;99162.69;5255070;28;20059;-84
2022/09/12 03:14:10;;;;;;;13.85;9.30;;;;;;;13.06;70.86;99157.75;5266396;28;20040;-85
2022/09/12 03:17:14;;;;;;;12.57;9.10;;;;;;;12.97;70.49;99138.22;5256397;28;20051;-83
2022/09/12 03:20:12;;;;;;;16.73;9.00;;;;;;;12.89;71.12;99149.66;5269056;28;20137;-84
2022/09/12 03:23:29;;;;;;;13.27;8.93;;;;;;;12.73;71.59;99143.38;5268082;28;20062;-83
2022/09/12 03:26:22;;;;;;;14.82;8.73;;;;;;;12.87;71.49;99172.06;5239133;28;20441;-83
2022/09/12 03:29:14;;;;;;;11.77;7.65;;;;;;;12.80;72.24;99173.69;5255023;28;20052;-84
2022/09/12 03:32:06;;;;;;;13.00;7.90;;;;;;;12.79;71.10;99172.03;5254588;28;20101;-84
2022/09/12 03:34:56;;;;;;;14.55;8.23;;;;;;;12.65;71.84;99154.78;5283245;28;20451;-83
2022/09/12 03:37:48;;;;;;;16.50;8.65;;;;;;;12.84;70.69;99135.13;5283735;28;20102;-83
2022/09/12 03:40:38;;;;;;;13.57;8.73;;;;;;;12.91;70.11;99152.13;5268997;28;20066;-84
2022/09/12 03:43:28;;;;;;;13.38;9.82;;;;;;;12.68;70.67;99146.47;5254066;28;20055;-84
2022/09/12 03:46:19;;;;;;;15.45;9.57;;;;;;;12.86;70.43;99170.41;5255995;28;20101;-83
2022/09/12 03:49:09;;;;;;;16.40;9.43;;;;;;;12.56;71.16;99134.41;5268630;28;20147;-84
2022/09/12 03:51:59;;;;;;;15.50;9.55;;;;;;;12.74;71.00;99153.00;5282440;28;20055;-82
2022/09/12 03:54:50;;;;;;;15.30;9.38;;;;;;;12.65;70.83;99154.78;5269701;28;20088;-84
2022/09/12 03:57:40;;;;;;;12.98;9.10;;;;;;;12.64;70.77;99169.88;5270396;28;20054;-83
2022/09/12 04:00:30;;;;;;;15.88;9.55;;;;;;;12.61;70.62;99170.19;5251364;28;20062;-83
2022/09/12 04:03:21;;;;;;;17.00;9.95;;;;;;;12.39;70.72;99162.69;5269801;28;20052;-84
2022/09/12 04:06:14;;;;;;;13.52;8.98;;;;;;;12.50;71.01;99170.44;5239443;28;20190;-83
2022/09/12 04:09:04;;;;;;;14.07;9.00;;;;;;;12.34;71.06;99160.47;5253393;28;20052;-84
2022/09/12 04:11:54;;;;;;;13.02;9.05;;;;;;;11.74;70.93;99075.09;5253358;28;20059;-84
2022/09/12 04:14:45;;;;;;;13.48;8.93;;;;;;;12.15;70.33;99139.31;5264956;28;20059;-83
2022/09/12 04:17:35;;;;;;;14.60;9.05;;;;;;;12.19;70.38;99149.53;5253331;28;20058;-83
2022/09/12 04:20:25;;;;;;;12.50;8.73;;;;;;;12.14;70.72;99140.31;5262055;28;20055;-82
2022/09/12 04:23:16;;;;;;;13.85;8.32;;;;;;;12.32;70.87;99166.94;5255495;28;20059;-81
2022/09/12 04:26:07;;;;;;;14.30;8.48;;;;;;;12.28;70.70;99160.22;5257009;28;20459;-81
2022/09/12 04:28:57;;;;;;;14.65;9.05;;;;;;;11.98;70.63;99117.88;5245248;28;20052;-81
2022/09/12 04:31:47;;;;;;;13.25;8.57;;;;;;;12.03;70.23;99125.44;5272708;28;20097;-81
2022/09/12 04:34:38;;;;;;;12.80;8.48;;;;;;;11.95;70.35;99120.00;5245933;28;20052;-81
2022/09/12 04:37:28;;;;;;;13.70;8.80;;;;;;;11.92;70.40;99118.50;5261090;28;20044;-81
2022/09/12 04:40:18;;;;;;;14.35;8.73;;;;;;;12.19;70.54;99154.00;5256334;28;20044;-81
2022/09/12 04:43:08;;;;;;;15.70;8.75;;;;;;;12.17;71.87;99167.44;5267983;28;20072;-82
2022/09/12 04:46:05;;;;;;;12.45;8.70;;;;;;;12.30;71.42;99171.56;5265132;28;20048;-81
2022/09/12 04:48:56;;;;;;;13.52;8.50;;;;;;;12.21;71.50;99162.66;5265931;28;20040;-81
2022/09/12 04:51:46;;;;;;;14.10;8.15;;;;;;;12.09;70.51;99156.72;5264817;28;20494;-82
2022/09/12 04:54:36;;;;;;;13.82;9.32;;;;;;;12.12;71.55;99159.09;5234900;28;20220;-82
2022/09/12 04:57:27;;;;;;;14.48;8.95;;;;;;;12.19;71.01;99169.97;5230865;28;20136;-82
2022/09/12 05:00:17;;;;;;;14.10;9.13;;;;;;;12.10;70.80;99149.59;5270813;28;20076;-81
2022/09/12 05:03:07;;;;;;;17.52;9.77;;;;;;;12.29;70.71;99153.94;5242212;28;20507;-79
2022/09/12 05:05:58;;;;;;;20.00;9.75;;;;;;;12.15;71.56;99152.63;5246267;28;20113;-81
2022/09/12 05:08:49;;;;;;;14.30;8.88;;;;;;;12.33;71.24;99158.78;5255040;28;20055;-81
2022/09/12 05:11:42;;;;;;;13.77;8.75;;;;;;;12.22;71.25;99143.06;5254233;28;20048;-82
2022/09/12 05:14:53;;;;;;;13.30;8.40;;;;;;;12.07;71.11;99131.28;5271316;28;20129;-81
2022/09/12 05:17:43;;;;;;;12.77;7.97;;;;;;;12.14;70.64;99146.47;5276237;28;20051;-80
2022/09/12 05:20:33;;;;;;;14.73;8.75;;;;;;;12.16;70.02;99155.13;5257875;28;20048;-81
2022/09/12 05:23:23;;;;;;;12.65;8.48;;;;;;;12.23;70.98;99171.31;5259460;28;20124;-80
2022/09/12 05:26:15;;;;;;;15.70;9.73;;;;;;;12.26;72.26;99164.88;5270636;22;20409;-71
2022/09/12 05:29:05;;;;;;;14.73;9.18;;;;;;;12.37;71.44;99180.59;5276339;28;20045;-71
2022/09/12 05:31:56;;;;;;;20.63;9.52;;;;;;;12.26;73.59;99181.66;5268805;28;20071;-71
2022/09/12 05:34:46;;;;;;;18.38;10.90;;;;;;;12.31;73.39;99181.19;5258775;28;20505;-71
2022/09/12 05:37:36;;;;;;;17.38;11.15;;;;;;;12.42;73.49;99186.31;5287172;28;20159;-71
2022/09/12 05:40:26;;;;;;;18.17;10.65;;;;;;;12.61;72.32;99180.00;5271667;28;20421;-73
2022/09/12 05:43:17;;;;;;;33.95;14.82;;;;;;;12.56;72.37;99167.16;5286516;28;20432;-71
2022/09/12 05:46:13;;;;;;;21.80;11.85;;;;;;;12.70;72.97;99179.91;5289997;27;20101;-71
2022/09/12 05:49:06;;;;;;;24.67;11.93;;;;;;;12.80;72.55;99181.66;5282447;27;20048;-72
2022/09/12 05:51:56;;;;;;;19.10;11.80;;;;;;;12.80;72.88;99176.34;5273964;28;20521;-71
2022/09/12 05:54:47;;;;;;;22.30;12.05;;;;;;;12.89;72.25;99178.09;5286108;28;20160;-71
2022/09/12 05:57:38;;;;;;;21.17;12.20;;;;;;;12.98;72.16;99184.28;5283394;28;20055;-71
2022/09/12 06:00:28;;;;;;;23.10;11.82;;;;;;;13.01;72.35;99182.16;5285789;28;20100;-71
2022/09/12 06:03:22;;;;;;;21.33;12.60;;;;;;;13.07;72.49;99186.88;5284645;28;20058;-70
2022/09/12 06:06:15;;;;;;;19.88;12.95;;;;;;;13.07;73.30;99183.38;5269410;28;20144;-70
2022/09/12 06:09:06;;;;;;;26.15;15.23;;;;;;;13.36;73.10;99177.78;5283670;28;20058;-71
2022/09/12 06:11:56;;;;;;;27.23;16.15;;;;;;;13.46;73.07;99175.84;5281666;28;20536;-71
2022/09/12 06:14:46;;;;;;;30.40;17.95;;;;;;;13.56;73.67;99181.91;5285926;28;20230;-71
2022/09/12 06:17:36;;;;;;;38.05;19.15;;;;;;;13.90;73.26;99177.56;5286769;28;20650;-71
2022/09/12 06:20:26;;;;;;;32.08;18.73;;;;;;;14.04;73.35;99175.13;5269706;28;20136;-71
2022/09/12 06:23:16;;;;;;;33.92;19.77;;;;;;;14.52;71.16;99178.94;5284739;28;20058;-71
2022/09/12 06:26:09;;;;;;;34.65;18.00;;;;;;;14.24;72.51;99185.53;5286183;28;20059;-71
2022/09/12 06:28:59;;;;;;;35.20;16.75;;;;;;;14.25;72.46;99174.69;5285046;28;20067;-71
2022/09/12 06:31:49;;;;;;;56.17;19.17;;;;;;;14.31;72.16;99163.34;5281279;28;20474;-71
2022/09/12 06:34:39;;;;;;;28.00;17.05;;;;;;;14.70;70.97;99172.59;5285976;28;20056;-71
2022/09/12 06:37:30;;;;;;;29.90;16.50;;;;;;;14.66;71.14;99166.75;5286300;28;20497;-71
2022/09/12 06:40:20;;;;;;;29.00;15.98;;;;;;;14.65;71.96;99164.28;5285225;28;20040;-71
2022/09/12 06:43:12;;;;;;;26.52;16.35;;;;;;;14.91;70.69;99167.63;5283731;28;20195;-71
2022/09/12 06:46:03;;;;;;;22.98;14.68;;;;;;;15.01;70.23;99178.97;5286425;28;20053;-71
2022/09/12 06:48:59;;;;;;;24.80;15.20;;;;;;;15.33;69.45;99181.75;5285420;28;20082;-71
2022/09/12 06:51:49;;;;;;;25.95;14.25;;;;;;;15.21;70.30;99176.78;5283631;28;20275;-72
2022/09/12 06:54:39;;;;;;;26.05;14.75;;;;;;;15.26;69.50;99176.25;5293936;27;20088;-71
2022/09/12 06:57:30;;;;;;;25.67;14.13;;;;;;;15.67;68.63;99179.72;5293007;27;20515;-71
2022/09/12 07:00:20;;;;;;;21.63;14.13;;;;;;;15.95;68.64;99187.28;5271968;27;20185;-71
2022/09/12 07:03:09;;;;;;;25.98;14.30;;;;;;;16.19;67.83;99181.84;5277309;27;20090;-71
2022/09/12 07:06:14;;;;;;;25.95;14.00;;;;;;;16.62;67.02;99184.06;5286008;28;20062;-71
2022/09/12 07:09:05;;;;;;;;;;;;;;;16.99;66.32;99180.66;5274984;28;20054;-71
2022/09/12 07:11:55;;;;;;;19.00;11.93;;;;;;;18.05;64.73;99171.50;5283779;28;19926;-71
2022/09/12 07:14:46;;;;;;;18.13;11.57;;;;;;;19.16;59.91;99173.88;5290611;27;20302;-71
2022/09/12 07:17:36;;;;;;;17.35;11.75;;;;;;;20.03;56.91;99169.88;5265885;27;20048;-70
2022/09/12 07:20:26;;;;;;;15.82;11.50;;;;;;;20.53;55.43;99165.09;5265486;27;20050;-70
2022/09/12 07:23:16;;;;;;;14.32;9.65;;;;;;;21.09;54.45;99162.06;5258126;28;20161;-70
2022/09/12 07:26:08;;;;;;;14.43;9.88;;;;;;;21.37;54.10;99161.06;5246541;28;20104;-71
2022/09/12 07:28:58;;;;;;;15.98;9.30;;;;;;;21.56;53.61;99166.41;5256172;28;20614;-70
2022/09/12 07:32:08;;;;;;;12.10;8.75;;;;;;;22.23;51.93;99166.22;5264159;28;20113;-71
2022/09/12 07:34:58;;;;;;;13.30;8.55;;;;;;;22.69;50.60;99165.13;5270476;28;20074;-70
2022/09/12 07:37:48;;;;;;;15.40;11.20;;;;;;;23.06;49.32;99176.94;5271794;28;20544;-71
2022/09/12 07:40:39;;;;;;;13.65;8.48;;;;;;;23.21;49.56;99176.59;5270851;28;20051;-70
2022/09/12 07:43:29;;;;;;;10.50;8.07;;;;;;;23.73;49.02;99169.06;5270526;28;20047;-71
2022/09/12 07:46:21;;;;;;;9.30;7.32;;;;;;;24.43;46.12;99170.53;5268269;28;20368;-71
2022/09/12 07:49:11;;;;;;;10.57;7.68;;;;;;;24.46;46.16;99170.88;5264563;28;20082;-71
2022/09/12 07:52:01;;;;;;;9.95;7.50;;;;;;;24.96;44.13;99170.56;5261093;28;20048;-71
2022/09/12 07:54:51;;;;;;;8.48;7.30;;;;;;;24.27;48.23;99166.53;5261563;28;20562;-71
2022/09/12 07:57:41;;;;;;;10.55;6.97;;;;;;;25.33;44.32;99169.56;5246541;28;20054;-71
2022/09/12 08:00:34;;;;;;;9.93;7.00;;;;;;;24.81;45.27;99162.06;5247072;28;20104;-70
2022/09/12 08:03:24;;;;;;;8.67;7.00;;;;;;;24.92;43.88;99144.16;5260619;28;20074;-71
2022/09/12 08:06:22;;;;;;;15.65;6.57;;;;;;;25.11;45.04;99148.44;5257931;28;20353;-71
2022/09/12 08:09:14;;;;;;;9.52;6.63;;;;;;;25.72;42.46;99163.41;5260276;28;20083;-71
2022/09/12 08:12:04;;;;;;;8.82;6.90;;;;;;;25.83;42.25;99161.81;5244281;28;20059;-70
2022/09/12 08:14:54;;;;;;;9.43;6.93;;;;;;;25.87;43.71;99157.53;5271264;28;20564;-70
2022/09/12 08:17:44;;;;;;;9.45;7.00;;;;;;;26.02;44.40;99165.16;5271361;28;20060;-70
2022/09/12 08:20:35;;;;;;;10.43;7.55;;;;;;;26.34;42.09;99157.38;5243735;28;20139;-71
2022/09/12 08:23:28;;;;;;;9.73;6.70;;;;;;;26.41;44.88;99149.09;5264913;28;20077;-71
2022/09/12 08:26:18;;;;;;;10.65;6.65;;;;;;;26.42;41.69;99158.88;5263410;28;20429;-71
2022/09/12 08:29:08;;;;;;;8.90;6.35;;;;;;;26.08;41.93;99144.38;5263452;28;20046;-71
2022/09/12 08:31:58;;;;;;;9.02;6.60;;;;;;;26.80;42.52;99154.72;5260693;28;20062;-70
2022/09/12 08:34:48;;;;;;;8.32;6.25;;;;;;;26.87;41.14;99147.22;5263845;28;20360;-71
2022/09/12 08:37:39;;;;;;;8.35;7.00;;;;;;;26.93;42.18;99157.13;5267165;28;20494;-71
2022/09/12 08:40:29;;;;;;;9.02;6.22;;;;;;;27.13;42.67;99149.31;5270054;28;20051;-71
2022/09/12 08:43:42;;;;;;;7.80;6.05;;;;;;;27.46;40.34;99144.09;5274407;28;20056;-71
2022/09/12 08:46:44;;;;;;;9.18;5.63;;;;;;;27.54;40.85;99146.38;5243978;28;20062;-71
2022/09/12 08:49:47;;;;;;;10.43;5.38;;;;;;;27.85;41.02;99150.38;5272160;28;21229;-70
2022/09/12 08:52:46;;;;;;;9.10;5.55;;;;;;;27.73;40.59;99150.47;5269764;28;20226;-70
2022/09/12 08:55:40;;;;;;;5.53;4.78;;;;;;;27.26;40.62;99139.16;5271675;28;20079;-71
2022/09/12 08:58:38;;;;;;;7.07;5.18;;;;;;;27.52;39.87;99145.81;5270799;28;20051;-71
2022/09/12 09:01:44;;;;;;;10.10;5.70;;;;;;;27.39;41.17;99139.63;5266569;28;20070;-71
2022/09/12 09:04:56;;;;;;;7.80;5.82;;;;;;;27.79;39.95;99126.88;5273003;28;20077;-71
2022/09/12 09:08:04;;;;;;;7.10;5.55;;;;;;;27.68;38.85;99117.69;5268950;28;20052;-71
2022/09/12 09:11:11;;;;;;;8.00;4.95;;;;;;;28.14;39.57;99128.34;5269229;28;20047;-71
2022/09/12 09:17:33;;;;;;;6.70;4.18;;;;;;;28.32;38.31;99128.84;5271873;28;20161;-70
2022/09/12 09:20:29;;;;;;;5.22;3.97;;;;;;;28.32;38.75;99117.94;5267538;28;20048;-71
2022/09/12 09:23:25;;;;;;;7.05;5.55;;;;;;;27.97;38.96;99123.81;5271351;28;20054;-71
2022/09/12 09:26:44;;;;;;;7.57;5.10;;;;;;;27.83;40.77;99122.56;5267321;28;20107;-71
2022/09/12 09:29:40;;;;;;;6.15;4.30;;;;;;;28.32;38.73;99126.13;5273018;28;20595;-71
2022/09/12 09:32:36;;;;;;;5.07;4.50;;;;;;;28.69;38.39;99124.59;5266431;28;20047;-71
2022/09/12 09:35:46;;;;;;;6.13;3.78;;;;;;;29.29;36.03;99123.47;5270508;28;20478;-71
2022/09/12 09:38:42;;;;;;;5.60;4.00;;;;;;;28.84;37.52;99119.28;5267804;28;20109;-71
2022/09/12 09:41:51;;;;;;;7.82;5.30;;;;;;;28.98;36.29;99123.22;5267225;28;20425;-70
2022/09/12 09:44:46;;;;;;;5.88;4.30;;;;;;;29.23;37.34;99114.41;5264243;28;20093;-70
2022/09/12 09:47:36;;;;;;;4.60;3.55;;;;;;;29.45;36.42;99106.06;5254744;28;20104;-71
2022/09/12 09:50:27;;;;;;;4.68;2.70;;;;;;;29.10;35.56;99108.56;5272084;28;21373;-72
2022/09/12 09:53:25;;;;;;;2.95;2.75;;;;;;;29.39;37.05;99118.06;5274741;28;20255;-72
2022/09/12 09:56:47;;;;;;;3.67;2.60;;;;;;;29.23;36.57;99114.41;5274251;28;20261;-72
2022/09/12 09:59:37;;;;;;;2.72;2.45;;;;;;;29.01;34.86;99111.81;5265598;28;20054;-72
2022/09/12 10:02:27;;;;;;;3.83;2.83;;;;;;;29.05;36.54;99097.63;5271153;28;20047;-73
2022/09/12 10:05:18;;;;;;;4.78;2.60;;;;;;;29.32;35.33;99111.19;5267614;28;20052;-72
2022/09/12 10:08:08;;;;;;;3.85;2.40;;;;;;;29.50;35.11;99108.84;5266651;28;20551;-72
2022/09/12 10:10:59;;;;;;;3.20;2.90;;;;;;;28.83;34.51;99105.88;5261887;28;20074;-72
2022/09/12 10:13:51;;;;;;;2.53;2.33;;;;;;;29.40;33.43;99097.84;5270112;28;20050;-72
2022/09/12 10:16:53;;;;;;;4.22;2.80;;;;;;;29.77;34.88;99102.44;5267066;28;20759;-72
2022/09/12 10:19:45;;;;;;;2.45;2.25;;;;;;;29.37;33.95;99090.19;5268463;28;20126;-72
2022/09/12 10:23:01;;;;;;;2.78;2.58;;;;;;;29.21;33.71;99100.22;5254280;28;20339;-72
2022/09/12 10:25:59;;;;;;;2.72;2.30;;;;;;;29.38;33.44;99086.38;5269268;28;20062;-72
2022/09/12 10:28:54;;;;;;;2.35;2.17;;;;;;;29.41;33.74;99099.50;5253343;28;20051;-72
2022/09/12 10:31:50;;;;;;;2.80;2.53;;;;;;;29.76;33.07;99099.97;5273446;28;20104;-72
2022/09/12 10:34:44;;;;;;;2.83;2.53;;;;;;;29.44;32.27;99100.88;5280778;27;20175;-73
2022/09/12 10:37:38;;;;;;;2.67;2.47;;;;;;;29.35;32.69;99089.63;5275336;28;20075;-71
2022/09/12 10:40:33;;;;;;;;;;;;;;;29.16;34.21;99086.50;5269246;28;20420;-71
2022/09/12 10:43:30;;;;;;;4.00;2.50;;;;;;;28.84;34.06;99072.91;5257519;28;19926;-71
2022/09/12 10:46:26;;;;;;;3.97;2.42;;;;;;;28.85;33.71;99079.16;5258970;28;20062;-71
2022/09/12 10:49:22;;;;;;;3.00;2.75;;;;;;;29.04;34.73;99077.72;5267908;28;20083;-71
2022/09/12 10:52:21;;;;;;;3.38;3.03;;;;;;;28.38;35.17;99082.53;5285753;28;20493;-69
2022/09/12 10:55:15;;;;;;;2.78;2.28;;;;;;;28.36;35.01;99060.97;5287367;28;20059;-70
2022/09/12 10:58:13;;;;;;;;;;;;;;;28.29;34.14;99076.72;5268614;28;20059;-70
2022/09/12 11:01:18;;;;;;;2.80;2.50;;;;;;;28.20;34.40;99056.47;5282097;27;20170;-72
2022/09/12 11:04:21;;;;;;;3.20;2.90;;;;;;;28.13;36.06;99069.47;5295780;27;20051;-70
2022/09/12 11:07:17;;;;;;;2.92;2.10;;;;;;;28.14;34.17;99063.75;5295456;27;20558;-71
2022/09/12 11:10:42;;;;;;;3.17;2.42;;;;;;;27.85;34.45;99058.56;5271848;27;20055;-71
2022/09/12 11:13:40;;;;;;;2.42;2.22;;;;;;;27.82;33.90;99055.53;5292914;27;20049;-71
2022/09/12 11:16:46;;;;;;;6.55;2.05;;;;;;;27.72;35.57;99036.31;5294821;27;20138;-71
2022/09/12 11:19:49;;;;;;;3.67;2.08;;;;;;;27.89;36.37;99037.06;5246548;28;20062;-71
2022/09/12 11:22:53;;;;;;;2.58;1.95;;;;;;;27.82;34.95;99031.00;5293641;27;20039;-72
2022/09/12 11:25:51;;;;;;;3.90;2.20;;;;;;;27.91;34.82;99029.44;5295391;27;20113;-71
2022/09/12 11:29:04;;;;;;;2.80;2.38;;;;;;;27.79;34.24;99023.34;5264790;28;20207;-71
2022/09/12 11:32:11;;;;;;;3.88;1.98;;;;;;;27.92;35.52;99031.09;5294358;27;20065;-70
2022/09/12 11:35:28;;;;;;;2.53;1.92;;;;;;;28.08;34.79;99029.38;5292870;27;20062;-71
2022/09/12 11:38:21;;;;;;;2.20;2.10;;;;;;;27.56;33.48;99022.50;5284150;27;20051;-74
2022/09/12 11:41:22;;;;;;;2.03;1.80;;;;;;;27.63;34.15;99030.47;5282172;27;20050;-72
2022/09/12 11:44:25;;;;;;;1.90;1.80;;;;;;;27.50;35.54;99025.41;5262310;27;20070;-73
2022/09/12 11:47:17;;;;;;;2.70;1.70;;;;;;;27.68;38.67;99022.34;5257961;28;20189;-72
2022/09/12 11:50:22;;;;;;;2.58;1.70;;;;;;;27.91;32.39;99015.00;5264931;28;20151;-72
2022/09/12 11:53:27;;;;;;;1.85;1.70;;;;;;;27.75;33.15;99012.09;5249478;28;20047;-72
2022/09/12 11:56:17;;;;;;;2.15;1.85;;;;;;;27.94;33.84;99012.56;5252073;28;20449;-70
2022/09/12 11:59:15;;;;;;;8.65;1.63;;;;;;;27.14;34.63;99003.16;5270246;28;20112;-71
2022/09/12 12:02:12;;;;;;;2.45;1.67;;;;;;;27.09;33.48;99006.63;5275312;28;20490;-70
2022/09/12 12:05:19;;;;;;;1.58;1.48;;;;;;;27.51;33.39;99000.63;5263020;28;20066;-71
2022/09/12 12:08:11;;;;;;;7.32;4.45;;;;;;;27.39;34.65;99002.69;5264419;28;20517;-71
2022/09/12 12:11:03;;;;;;;1.90;1.70;;;;;;;27.70;32.59;99003.84;5260867;28;20050;-71
2022/09/12 12:13:58;;;;;;;2.20;1.20;;;;;;;27.83;32.57;98992.59;5238170;28;20419;-71
2022/09/12 12:16:49;;;;;;;3.05;1.30;;;;;;;27.23;34.13;98998.13;5257179;28;20055;-72
2022/09/12 12:19:39;;;;;;;2.25;1.20;;;;;;;27.72;33.91;98992.72;5259816;28;20051;-71
2022/09/12 12:22:30;;;;;;;1.52;1.42;;;;;;;27.68;32.48;98989.66;5259139;28;20097;-72
2022/09/12 12:25:23;;;;;;;1.75;1.65;;;;;;;27.41;32.09;98981.44;5262014;28;20063;-73
2022/09/12 12:28:37;;;;;;;1.60;1.50;;;;;;;27.35;33.70;98979.72;5268015;28;20172;-71
2022/09/12 12:31:27;;;;;;;3.10;1.70;;;;;;;27.12;33.35;98976.19;5263198;28;20107;-70
2022/09/12 12:34:27;;;;;;;1.55;1.45;;;;;;;27.07;33.47;98978.00;5274629;28;20074;-71
2022/09/12 12:37:28;;;;;;;2.38;1.60;;;;;;;27.04;33.23;98973.88;5274317;28;20104;-70
2022/09/12 12:40:26;;;;;;;1.98;1.70;;;;;;;27.25;32.74;98974.16;5274559;28;20063;-70
2022/09/12 12:43:30;;;;;;;2.60;1.58;;;;;;;27.18;33.82;98966.19;5261251;28;20528;-71
2022/09/12 12:46:24;;;;;;;1.67;1.58;;;;;;;26.89;34.42;98957.34;5273128;28;20040;-71
2022/09/12 12:49:26;;;;;;;1.65;1.55;;;;;;;27.11;35.00;98962.81;5269639;28;20074;-71
2022/09/12 12:52:17;;;;;;;2.28;1.48;;;;;;;27.20;34.00;98963.22;5264154;28;20062;-70
2022/09/12 12:55:20;;;;;;;2.42;1.38;;;;;;;27.56;31.98;98959.84;5263864;28;20420;-70
2022/09/12 12:58:39;;;;;;;1.40;1.30;;;;;;;27.31;31.68;98954.91;5262932;27;20644;-71
2022/09/12 13:01:31;;;;;;;2.03;1.35;;;;;;;27.02;33.25;98947.97;5265388;28;21078;-70
2022/09/12 13:04:25;;;;;;;1.75;1.60;;;;;;;26.90;33.15;98945.41;5248599;28;20074;-71
2022/09/12 13:07:28;;;;;;;1.85;1.60;;;;;;;26.45;32.95;98936.28;5263235;27;20074;-70
2022/09/12 13:10:27;;;;;;;7.27;2.60;;;;;;;26.73;33.07;98942.72;5254341;28;20070;-70
2022/09/12 13:13:33;;;;;;;2.08;1.80;;;;;;;26.66;33.97;98934.72;5252890;28;20654;-70
2022/09/12 13:16:51;;;;;;;4.50;1.30;;;;;;;26.68;33.01;98932.56;5266362;28;20062;-70
2022/09/12 13:19:42;;;;;;;1.50;1.38;;;;;;;26.73;33.43;98931.00;5263545;28;20070;-70
2022/09/12 13:22:47;;;;;;;1.40;1.23;;;;;;;26.81;33.87;98930.56;5272040;28;20431;-70
2022/09/12 13:25:38;;;;;;;3.92;1.45;;;;;;;26.89;36.19;98930.16;5272507;28;20236;-70
2022/09/12 13:28:30;;;;;;;2.67;1.10;;;;;;;26.62;32.37;98911.84;5264133;28;20173;-71
2022/09/12 13:31:29;;;;;;;3.08;1.30;;;;;;;26.68;33.33;98921.69;5277829;28;20047;-70
2022/09/12 13:34:28;;;;;;;1.60;1.45;;;;;;;26.32;31.94;98901.28;5257270;28;20112;-70
2022/09/12 13:37:28;;;;;;;2.45;1.35;;;;;;;26.57;32.53;98906.31;5271028;28;20059;-71
2022/09/12 13:40:19;;;;;;;5.97;1.48;;;;;;;26.47;33.55;98897.97;5262059;28;20074;-71
2022/09/12 13:43:15;;;;;;;1.52;1.38;;;;;;;26.50;33.15;98897.50;5258228;22;20285;-69